Time;durP1;ratioP1;P1;durP2;ratioP2;P2;SDS_P1;SDS_P2;PMS_P1;PMS_P2;Temp;Humidity;BMP_temperature;BMP_pressure;BME280_temperature;BME280_humidity;BME280_pressure;Samples;Min_cycle;Max_cycle;Signal;HPM_P1;HPM_P2
2021/08/11 00:00:15;;;;;;;4.73;3.40;;;15.30;99.90;;;;;;5063758;28;20441;-82
2021/08/11 00:02:43;;;;;;;4.70;2.93;;;15.40;99.90;;;;;;5064508;28;20475;-83
2021/08/11 00:05:13;;;;;;;5.33;3.47;;;15.30;99.90;;;;;;5062771;28;20486;-82
2021/08/11 00:07:44;;;;;;;5.47;3.97;;;15.20;99.90;;;;;;5062399;28;20386;-83
2021/08/11 00:10:12;;;;;;;4.57;3.00;;;15.30;99.90;;;;;;5062771;28;20446;-83
2021/08/11 00:12:41;;;;;;;4.97;3.00;;;15.20;99.90;;;;;;5062764;28;20426;-83
2021/08/11 00:15:12;;;;;;;3.73;3.10;;;15.10;99.90;;;;;;5061672;28;20424;-83
2021/08/11 00:17:41;;;;;;;7.63;6.40;;;15.00;99.90;;;;;;5061303;28;20394;-83
2021/08/11 00:20:10;;;;;;;12.20;11.00;;;15.00;99.90;;;;;;5060413;28;20539;-83
2021/08/11 00:22:39;;;;;;;14.60;13.17;;;15.00;99.90;;;;;;5062161;28;20421;-82
2021/08/11 00:25:08;;;;;;;12.13;10.43;;;15.30;99.90;;;;;;5060830;28;20444;-83
2021/08/11 00:27:37;;;;;;;10.80;9.47;;;15.40;99.90;;;;;;5062600;28;20406;-81
2021/08/11 00:30:06;;;;;;;7.43;6.77;;;15.30;99.90;;;;;;5063959;28;20424;-83
2021/08/11 00:32:36;;;;;;;6.63;6.00;;;15.30;99.90;;;;;;5062645;28;20839;-82
2021/08/11 00:35:06;;;;;;;7.77;5.47;;;15.60;99.90;;;;;;5056932;28;20474;-83
2021/08/11 00:37:35;;;;;;;9.30;5.97;;;15.60;99.90;;;;;;5061262;28;20450;-82
2021/08/11 00:40:05;;;;;;;10.37;5.73;;;15.80;99.90;;;;;;5065626;28;20434;-83
2021/08/11 00:42:35;;;;;;;5.17;4.27;;;15.80;99.90;;;;;;5062631;28;20490;-82
2021/08/11 00:45:08;;;;;;;4.90;4.40;;;15.80;99.90;;;;;;5060501;28;20486;-83
2021/08/11 00:47:39;;;;;;;5.27;3.57;;;15.70;99.90;;;;;;5060142;28;20417;-83
2021/08/11 00:50:27;;;;;;;5.23;4.67;;;15.60;99.90;;;;;;5059185;28;20422;-84
2021/08/11 00:52:57;;;;;;;6.10;4.47;;;15.40;99.90;;;;;;5061699;28;20443;-83
2021/08/11 00:55:34;;;;;;;8.17;4.40;;;15.30;99.90;;;;;;5060338;28;20432;-83
2021/08/11 00:58:07;;;;;;;3.80;3.50;;;15.30;99.90;;;;;;5060803;28;20439;-83
2021/08/11 01:00:41;;;;;;;5.20;3.70;;;15.30;99.90;;;;;;5060214;28;20445;-83
2021/08/11 01:03:17;;;;;;;4.63;3.17;;;15.30;99.90;;;;;;5061599;28;20515;-83
2021/08/11 01:05:48;;;;;;;4.83;3.40;;;15.30;99.90;;;;;;5061564;28;20858;-82
2021/08/11 01:23:00;;;;;;;4.23;3.60;;;14.90;99.90;;;;;;5057686;28;20796;-82
2021/08/11 01:25:55;;;;;;;6.50;3.43;;;14.80;99.90;;;;;;5058437;28;20459;-82
2021/08/11 01:29:56;;;;;;;3.60;2.83;;;14.70;99.90;;;;;;4985187;28;20438;-82
2021/08/11 01:33:31;;;;;;;9.37;4.33;;;15.00;99.90;;;;;;4982275;28;20458;-83
2021/08/11 01:36:07;;;;;;;4.10;3.57;;;14.80;99.90;;;;;;4981563;28;20445;-83
2021/08/11 01:38:42;;;;;;;5.80;4.33;;;14.80;99.90;;;;;;4980676;28;20439;-83
2021/08/11 01:41:13;;;;;;;4.60;3.83;;;14.70;99.90;;;;;;4978430;28;20442;-82
2021/08/11 01:43:46;;;;;;;5.20;4.30;;;14.70;99.90;;;;;;4980190;28;20461;-81
2021/08/11 01:46:17;;;;;;;5.40;3.20;;;14.70;99.90;;;;;;4972854;28;20474;-82
2021/08/11 01:48:51;;;;;;;5.43;4.67;;;14.60;99.90;;;;;;4987392;28;20419;-83
2021/08/11 01:51:20;;;;;;;4.60;3.90;;;14.60;99.90;;;;;;4968050;28;20514;-83
2021/08/11 01:53:50;;;;;;;6.00;4.40;;;14.60;99.90;;;;;;5062300;28;20500;-82
2021/08/11 01:56:22;;;;;;;6.93;4.70;;;14.60;99.90;;;;;;5065458;28;20413;-82
2021/08/11 01:58:52;;;;;;;6.50;4.30;;;14.50;99.90;;;;;;5064728;28;20438;-83
2021/08/11 02:01:25;;;;;;;6.27;4.67;;;14.50;99.90;;;;;;5063939;28;20416;-82
2021/08/11 02:03:56;;;;;;;6.63;4.63;;;14.50;99.90;;;;;;5064458;28;20432;-82
2021/08/11 02:06:28;;;;;;;5.67;3.73;;;14.40;99.90;;;;;;5063133;28;20454;-83
2021/08/11 02:09:06;;;;;;;5.90;5.40;;;14.50;99.90;;;;;;5068714;28;20440;-82
2021/08/11 02:11:40;;;;;;;4.20;3.80;;;14.60;99.90;;;;;;5069416;28;20405;-83
2021/08/11 02:19:13;;;;;;;5.10;3.20;;;14.40;99.90;;;;;;5080670;28;20447;-83
2021/08/11 02:21:42;;;;;;;5.03;4.40;;;14.30;99.90;;;;;;5063563;28;20405;-83
2021/08/11 02:24:35;;;;;;;9.00;4.93;;;14.50;99.90;;;;;;5063854;28;20837;-83
2021/08/11 02:31:49;;;;;;;5.93;4.57;;;14.40;99.90;;;;;;5059410;28;20402;-83
2021/08/11 02:34:36;;;;;;;4.87;4.10;;;14.40;99.90;;;;;;5065620;28;20492;-82
2021/08/11 02:37:12;;;;;;;6.93;4.53;;;14.40;99.90;;;;;;5070670;28;20485;-82
2021/08/11 02:39:47;;;;;;;7.50;4.87;;;14.50;99.90;;;;;;5070484;28;20525;-82
2021/08/11 02:42:23;;;;;;;6.13;4.90;;;14.30;99.90;;;;;;5061480;28;20520;-82
2021/08/11 02:44:56;;;;;;;6.70;4.67;;;14.40;99.90;;;;;;5061379;28;20431;-83
2021/08/11 02:47:28;;;;;;;5.67;3.90;;;14.40;99.90;;;;;;5061236;28;20470;-82
2021/08/11 02:50:02;;;;;;;7.70;4.53;;;14.30;99.90;;;;;;5063660;28;20417;-82
2021/08/11 02:52:35;;;;;;;6.33;5.10;;;14.40;99.90;;;;;;5061885;28;20440;-82
2021/08/11 02:55:07;;;;;;;5.77;5.10;;;14.20;99.90;;;;;;5061293;28;20703;-82
2021/08/11 02:57:37;;;;;;;10.20;6.87;;;14.10;99.90;;;;;;5060581;28;20454;-82
2021/08/11 03:00:08;;;;;;;5.53;4.93;;;14.30;99.90;;;;;;5061976;28;20490;-83
2021/08/11 03:02:37;;;;;;;9.57;6.57;;;14.40;99.90;;;;;;5061897;28;20496;-82
2021/08/11 03:05:12;;;;;;;5.73;4.80;;;14.40;99.90;;;;;;5061102;28;20497;-83
2021/08/11 03:07:43;;;;;;;8.23;5.10;;;14.40;99.90;;;;;;5060248;28;20498;-82
2021/08/11 03:10:12;;;;;;;6.83;5.13;;;14.40;99.90;;;;;;5060207;28;20438;-81
2021/08/11 03:12:46;;;;;;;7.47;5.67;;;14.20;99.90;;;;;;5060842;28;20513;-82
2021/08/11 03:15:17;;;;;;;8.20;6.23;;;14.20;99.90;;;;;;5060985;28;20433;-83
2021/08/11 03:17:48;;;;;;;7.00;5.60;;;14.20;99.90;;;;;;5061245;28;20510;-82
2021/08/11 03:20:20;;;;;;;15.63;7.57;;;14.20;99.90;;;;;;5060188;28;20443;-83
2021/08/11 03:22:49;;;;;;;8.40;5.80;;;14.20;99.90;;;;;;5060756;28;20934;-83
2021/08/11 03:25:18;;;;;;;9.20;6.53;;;14.30;99.90;;;;;;5059911;28;20435;-82
2021/08/11 03:27:46;;;;;;;14.70;9.00;;;14.20;99.90;;;;;;5059896;28;20449;-82
2021/08/11 03:30:19;;;;;;;12.03;7.37;;;14.30;99.90;;;;;;5060544;28;20435;-83
2021/08/11 03:32:48;;;;;;;10.60;8.30;;;14.40;99.90;;;;;;5059732;28;20810;-83
2021/08/11 03:35:19;;;;;;;9.00;8.13;;;14.20;99.90;;;;;;5060221;28;20409;-81
2021/08/11 03:37:47;;;;;;;9.63;7.30;;;14.20;99.90;;;;;;5061930;28;20496;-82
2021/08/11 03:40:17;;;;;;;11.07;7.60;;;14.10;99.90;;;;;;5060708;28;20418;-82
2021/08/11 03:42:46;;;;;;;10.90;7.73;;;14.00;99.90;;;;;;5060367;28;20467;-81
2021/08/11 03:45:16;;;;;;;14.60;8.30;;;14.20;99.90;;;;;;5060041;28;20439;-82
2021/08/11 03:47:45;;;;;;;10.47;7.30;;;14.20;99.90;;;;;;5062278;28;20463;-83
2021/08/11 03:50:14;;;;;;;8.00;6.90;;;14.20;99.90;;;;;;5061949;28;20378;-83
2021/08/11 03:52:48;;;;;;;9.10;7.57;;;14.20;99.90;;;;;;5060943;28;20434;-82
2021/08/11 03:55:27;;;;;;;10.10;7.13;;;14.20;99.90;;;;;;5062094;28;20410;-83
2021/08/11 03:57:56;;;;;;;10.43;8.53;;;14.20;99.90;;;;;;5057344;28;20463;-82
2021/08/11 04:00:25;;;;;;;8.27;7.27;;;14.20;99.90;;;;;;5041384;28;20444;-83
2021/08/11 04:02:54;;;;;;;9.53;7.07;;;14.20;99.90;;;;;;5042124;28;20419;-83
2021/08/11 04:05:24;;;;;;;8.00;7.23;;;14.30;99.90;;;;;;5041270;28;20796;-82
2021/08/11 04:07:54;;;;;;;9.40;6.97;;;14.40;99.90;;;;;;5041006;28;20537;-82
2021/08/11 04:10:23;;;;;;;10.67;8.10;;;14.60;99.90;;;;;;5041914;28;20778;-83
2021/08/11 04:12:52;;;;;;;8.63;7.13;;;14.80;99.90;;;;;;5041058;28;20925;-83
2021/08/11 04:15:22;;;;;;;9.60;7.97;;;15.10;99.90;;;;;;5042237;28;20407;-83
2021/08/11 04:17:51;;;;;;;9.23;7.30;;;15.40;99.90;;;;;;5041763;28;20819;-82
2021/08/11 04:20:20;;;;;;;10.60;7.40;;;15.60;99.90;;;;;;5041449;28;20414;-83
2021/08/11 04:22:49;;;;;;;11.07;8.87;;;16.00;99.90;;;;;;5042168;28;20445;-82
2021/08/11 04:25:19;;;;;;;7.70;6.70;;;16.60;99.90;;;;;;5043756;28;20457;-83
2021/08/11 04:27:54;;;;;;;9.67;7.17;;;16.90;99.90;;;;;;5041888;28;20956;-82
2021/08/11 04:31:54;;;;;;;17.30;9.07;;;17.10;99.90;;;;;;4982369;28;20944;-82
2021/08/11 05:01:09;;;;;;;8.50;6.03;;;21.60;99.90;;;;;;4842676;29;20472;-82
2021/08/11 05:04:28;;;;;;;6.77;5.77;;;21.70;99.90;;;;;;4849229;29;20428;-82
2021/08/11 05:06:58;;;;;;;6.93;6.23;;;22.50;99.90;;;;;;4848418;29;20448;-82
2021/08/11 05:09:27;;;;;;;12.53;6.57;;;22.70;99.90;;;;;;4848409;29;20438;-82
2021/08/11 05:11:55;;;;;;;8.93;7.40;;;22.30;99.90;;;;;;4849450;29;20455;-81
2021/08/11 05:14:24;;;;;;;8.13;6.37;;;21.70;99.90;;;;;;4886737;29;20438;-82
2021/08/11 05:16:52;;;;;;;8.73;7.60;;;21.70;99.90;;;;;;4887080;29;20417;-82
2021/08/11 05:19:21;;;;;;;8.60;7.00;;;21.40;99.90;;;;;;4886716;29;20786;-82
2021/08/11 05:21:50;;;;;;;8.97;7.73;;;21.10;99.90;;;;;;4887229;29;20427;-82
2021/08/11 05:24:20;;;;;;;8.20;6.37;;;21.00;99.90;;;;;;4917608;29;20436;-83
2021/08/11 05:26:48;;;;;;;10.50;8.33;;;20.50;99.90;;;;;;4924985;29;20409;-81
2021/08/11 05:29:18;;;;;;;8.77;7.17;;;19.40;99.90;;;;;;5003611;28;20397;-82
2021/08/11 05:31:47;;;;;;;10.97;8.10;;;18.70;99.90;;;;;;5041254;28;20403;-82
2021/08/11 05:34:15;;;;;;;11.60;8.70;;;18.40;99.90;;;;;;5043835;28;20417;-82
2021/08/11 05:36:43;;;;;;;9.70;7.83;;;18.00;99.90;;;;;;5042973;28;20398;-82
2021/08/11 05:39:12;;;;;;;15.40;10.20;;;17.50;99.90;;;;;;5042977;28;20408;-82
2021/08/11 05:41:42;;;;;;;12.93;9.40;;;17.40;99.90;;;;;;5042016;28;20917;-83
2021/08/11 05:44:10;;;;;;;15.23;9.93;;;17.40;99.90;;;;;;5043774;28;20398;-82
2021/08/11 05:46:38;;;;;;;13.47;9.80;;;17.40;99.90;;;;;;5044875;28;20422;-81
2021/08/11 05:49:57;;;;;;;13.97;12.23;;;17.50;99.90;;;;;;5009502;28;20431;-83
2021/08/11 05:52:26;;;;;;;13.60;8.90;;;17.50;99.90;;;;;;5034403;28;20451;-84
2021/08/11 05:54:54;;;;;;;11.17;10.00;;;17.40;99.90;;;;;;5037712;28;20922;-86
2021/08/11 05:57:24;;;;;;;10.23;9.13;;;17.50;99.90;;;;;;5038890;28;20407;-86
2021/08/11 05:59:53;;;;;;;14.13;9.80;;;17.50;99.90;;;;;;5040363;28;20849;-86
2021/08/11 06:02:29;;;;;;;10.33;9.23;;;17.40;99.90;;;;;;5044912;28;20426;-84
2021/08/11 06:05:17;;;;;;;13.30;9.00;;;17.20;99.90;;;;;;5039089;28;20449;-85
2021/08/11 06:07:46;;;;;;;10.93;9.80;;;17.00;99.90;;;;;;5039952;28;20461;-84
2021/08/11 06:10:14;;;;;;;13.93;10.90;;;16.70;99.90;;;;;;5039852;28;20410;-83
2021/08/11 06:12:46;;;;;;;11.53;9.60;;;16.80;99.90;;;;;;5041512;28;20483;-83
2021/08/11 06:15:15;;;;;;;12.10;8.97;;;16.80;99.90;;;;;;5041080;28;20757;-83
2021/08/11 06:17:45;;;;;;;12.10;10.80;;;16.90;99.90;;;;;;5039331;28;20397;-85
2021/08/11 06:20:23;;;;;;;12.40;9.47;;;17.00;99.90;;;;;;5036860;28;20398;-85
2021/08/11 06:22:52;;;;;;;13.23;10.30;;;17.10;99.90;;;;;;5036102;28;20460;-85
2021/08/11 06:25:22;;;;;;;14.77;9.77;;;17.00;99.90;;;;;;5035591;28;20533;-85
2021/08/11 06:31:36;;;;;;;12.70;10.57;;;17.20;99.90;;;;;;5031645;28;20410;-86
2021/08/11 06:35:08;;;;;;;15.70;11.27;;;17.30;99.90;;;;;;5041871;28;20437;-83
2021/08/11 06:37:46;;;;;;;10.00;9.00;;;17.40;99.90;;;;;;5040836;28;20446;-85
2021/08/11 06:49:24;;;;;;;15.83;11.30;;;17.60;99.90;;;;;;5042948;28;20438;-85
2021/08/11 06:56:50;;;;;;;11.20;8.27;;;17.60;99.90;;;;;;5038724;28;20475;-85
2021/08/11 06:59:19;;;;;;;10.40;9.27;;;18.10;99.90;;;;;;5039595;28;20459;-86
2021/08/11 07:05:39;;;;;;;10.53;9.47;;;18.80;99.90;;;;;;5036487;28;20485;-85
2021/08/11 07:08:09;;;;;;;10.93;9.57;;;19.20;99.90;;;;;;5038983;28;20464;-86
2021/08/11 07:10:43;;;;;;;13.00;9.70;;;19.30;99.90;;;;;;5037946;28;20406;-87
2021/08/11 07:13:27;;;;;;;11.50;10.30;;;19.30;99.90;;;;;;5038908;28;20791;-83
2021/08/11 07:23:02;;;;;;;8.50;7.67;;;18.20;99.90;;;;;;5041075;28;20458;-84
2021/08/11 07:28:39;;;;;;;8.63;7.83;;;18.90;99.90;;;;;;5054586;28;20442;-83
2021/08/11 07:31:16;;;;;;;10.87;7.77;;;18.90;99.90;;;;;;5055541;28;20678;-84
2021/08/11 07:34:35;;;;;;;9.50;7.27;;;19.10;99.90;;;;;;5052943;28;20408;-84
2021/08/11 07:38:17;;;;;;;8.50;7.73;;;19.40;99.90;;;;;;5050760;28;20423;-86
2021/08/11 07:41:20;;;;;;;9.00;8.10;;;19.40;99.90;;;;;;5041288;28;20440;-85
2021/08/11 07:43:49;;;;;;;9.67;8.03;;;19.30;99.90;;;;;;5042110;28;20448;-85
2021/08/11 07:46:18;;;;;;;9.93;7.37;;;19.10;99.90;;;;;;5037351;28;20450;-84
2021/08/11 07:48:47;;;;;;;11.63;7.87;;;19.30;99.90;;;;;;5039929;28;20459;-85
2021/08/11 07:51:40;;;;;;;8.47;7.07;;;19.30;99.90;;;;;;5045803;28;20447;-87
2021/08/11 07:54:43;;;;;;;8.50;7.40;;;19.40;99.90;;;;;;5040756;28;20399;-86
2021/08/11 08:01:30;;;;;;;7.63;6.80;;;19.00;99.90;;;;;;5039489;28;20433;-86
2021/08/11 08:04:30;;;;;;;8.43;7.10;;;19.20;99.90;;;;;;5038879;28;20483;-84
2021/08/11 08:07:03;;;;;;;6.63;5.93;;;19.20;99.90;;;;;;5042178;28;20443;-85
2021/08/11 08:10:09;;;;;;;8.10;7.20;;;19.10;99.90;;;;;;5032902;28;20466;-85
2021/08/11 08:12:43;;;;;;;8.20;6.70;;;19.10;99.90;;;;;;5048168;28;20419;-85
2021/08/11 08:15:18;;;;;;;6.37;5.77;;;18.70;99.90;;;;;;5048590;28;20424;-84
2021/08/11 08:17:55;;;;;;;7.27;6.53;;;18.80;99.90;;;;;;5041037;28;20379;-86
2021/08/11 08:20:26;;;;;;;7.33;6.63;;;18.70;99.90;;;;;;5048729;28;20398;-85
2021/08/11 08:22:57;;;;;;;8.37;6.47;;;18.60;99.90;;;;;;5050520;28;20418;-85
2021/08/11 08:29:13;;;;;;;11.60;6.60;;;18.60;99.90;;;;;;5045473;28;20449;-82
2021/08/11 08:31:42;;;;;;;5.90;5.30;;;18.90;99.90;;;;;;5040871;28;20431;-85
2021/08/11 08:34:13;;;;;;;7.70;6.00;;;19.00;99.90;;;;;;5039454;28;20395;-85
2021/08/11 08:37:09;;;;;;;8.53;5.80;;;19.10;99.90;;;;;;5037853;28;20950;-85
2021/08/11 08:39:45;;;;;;;8.00;6.07;;;19.30;99.90;;;;;;5034804;28;20473;-85
2021/08/11 08:42:26;;;;;;;9.07;5.30;;;19.80;99.90;;;;;;5036250;28;20435;-86
2021/08/11 08:44:59;;;;;;;5.87;5.27;;;19.90;99.90;;;;;;5037466;28;20882;-84
2021/08/11 08:47:28;;;;;;;7.93;6.43;;;20.10;99.90;;;;;;5038406;28;20404;-85
2021/08/11 08:49:59;;;;;;;5.03;4.53;;;19.90;99.90;;;;;;5037275;28;20460;-83
2021/08/11 08:52:29;;;;;;;8.23;5.20;;;19.50;99.90;;;;;;5038503;28;20939;-82
2021/08/11 08:55:00;;;;;;;5.90;5.30;;;19.50;99.90;;;;;;5038891;28;20911;-82
2021/08/11 08:57:29;;;;;;;7.70;6.00;;;19.50;99.90;;;;;;5040000;28;20434;-83
2021/08/11 08:59:58;;;;;;;6.37;5.07;;;19.40;99.90;;;;;;5037981;28;20436;-84
2021/08/11 09:02:26;;;;;;;6.60;5.83;;;19.50;99.90;;;;;;5038650;28;20467;-83
2021/08/11 09:04:55;;;;;;;4.97;4.40;;;19.30;99.90;;;;;;5040506;28;20417;-84
2021/08/11 09:07:24;;;;;;;8.80;5.30;;;19.20;99.90;;;;;;5040937;28;20677;-85
2021/08/11 09:09:53;;;;;;;8.43;5.43;;;19.30;99.90;;;;;;5040096;28;20434;-83
2021/08/11 09:12:23;;;;;;;7.00;4.53;;;19.80;99.90;;;;;;5039176;28;20539;-85
2021/08/11 09:14:53;;;;;;;6.30;5.30;;;20.40;99.90;;;;;;5039004;28;20446;-85
2021/08/11 09:17:35;;;;;;;5.10;4.60;;;20.60;99.90;;;;;;5041032;28;20461;-84
2021/08/11 09:20:06;;;;;;;7.27;3.93;;;20.60;99.90;;;;;;5039929;28;20887;-83
2021/08/11 09:22:47;;;;;;;4.70;4.23;;;20.60;99.90;;;;;;5041615;28;20452;-83
2021/08/11 09:25:16;;;;;;;5.33;4.07;;;20.40;99.90;;;;;;5039607;28;20761;-84
2021/08/11 09:27:46;;;;;;;4.20;3.80;;;20.70;99.90;;;;;;5038089;28;20408;-85
2021/08/11 09:30:17;;;;;;;4.80;3.70;;;20.70;99.90;;;;;;5039353;28;20526;-83
2021/08/11 09:32:52;;;;;;;5.60;4.80;;;20.70;99.90;;;;;;5041912;28;20419;-85
2021/08/11 09:35:25;;;;;;;5.37;4.63;;;20.50;99.90;;;;;;5036607;28;20430;-86
2021/08/11 09:37:59;;;;;;;6.03;5.10;;;20.50;99.90;;;;;;5039932;28;20412;-84
2021/08/11 09:40:41;;;;;;;5.90;3.93;;;20.20;99.90;;;;;;5039164;28;20435;-83
2021/08/11 09:43:12;;;;;;;4.57;3.30;;;20.40;99.90;;;;;;5036842;28;20459;-84
2021/08/11 09:45:54;;;;;;;4.87;4.33;;;20.70;99.90;;;;;;5039771;28;20432;-84
2021/08/11 09:48:43;;;;;;;3.80;3.50;;;21.00;99.90;;;;;;5038517;28;20917;-84
2021/08/11 09:51:44;;;;;;;5.57;5.00;;;21.60;99.90;;;;;;5037118;28;20436;-82
2021/08/11 09:54:32;;;;;;;7.10;4.07;;;22.20;99.90;;;;;;5038368;28;20387;-84
2021/08/11 09:57:06;;;;;;;6.80;4.50;;;21.70;99.90;;;;;;5037354;28;20949;-84
2021/08/11 09:59:57;;;;;;;5.27;4.37;;;21.30;99.90;;;;;;5037738;28;20395;-83
2021/08/11 10:02:28;;;;;;;10.53;7.97;;;21.30;99.90;;;;;;5037304;28;20471;-86
2021/08/11 10:05:39;;;;;;;4.17;3.43;;;21.10;99.90;;;;;;5039284;28;20521;-85
2021/08/11 10:08:07;;;;;;;5.63;4.30;;;21.30;99.90;;;;;;5042346;28;20730;-84
2021/08/11 10:10:50;;;;;;;4.33;3.80;;;21.50;99.90;;;;;;5041110;28;20510;-85
2021/08/11 10:13:22;;;;;;;5.63;4.40;;;21.50;99.90;;;;;;5042091;28;20479;-85
2021/08/11 10:16:02;;;;;;;4.60;3.90;;;21.80;99.90;;;;;;5041793;28;20764;-85
2021/08/11 10:18:38;;;;;;;6.10;4.53;;;22.20;99.90;;;;;;5042392;28;20881;-85
2021/08/11 10:21:08;;;;;;;9.83;4.47;;;22.10;99.90;;;;;;5040246;28;20407;-85
2021/08/11 10:23:41;;;;;;;7.00;3.67;;;21.80;99.90;;;;;;5040262;28;21001;-86
2021/08/11 10:26:13;;;;;;;4.80;4.40;;;22.00;99.90;;;;;;5041380;28;20422;-83
2021/08/11 10:28:45;;;;;;;5.57;4.77;;;22.20;99.90;;;;;;5041798;28;20853;-85
2021/08/11 10:31:14;;;;;;;5.13;4.23;;;22.10;99.90;;;;;;5042657;28;20446;-84
2021/08/11 10:33:56;;;;;;;4.77;4.00;;;22.20;99.90;;;;;;5040323;28;20489;-84
2021/08/11 10:36:25;;;;;;;5.23;4.13;;;22.00;99.90;;;;;;5041005;28;20394;-84
2021/08/11 10:38:56;;;;;;;6.33;4.23;;;21.70;99.90;;;;;;5042858;28;20790;-84
2021/08/11 10:41:30;;;;;;;5.70;3.83;;;21.40;99.90;;;;;;5043096;28;20380;-84
2021/08/11 10:44:00;;;;;;;5.40;4.10;;;21.60;99.90;;;;;;5043710;28;20418;-84
2021/08/11 10:46:35;;;;;;;5.13;3.80;;;21.60;99.90;;;;;;5043837;28;20437;-85
2021/08/11 10:49:05;;;;;;;3.83;3.43;;;21.40;99.90;;;;;;5044626;28;20447;-82
2021/08/11 10:51:40;;;;;;;5.90;4.30;;;21.40;99.90;;;;;;5043211;28;20824;-82
2021/08/11 10:54:16;;;;;;;5.00;3.13;;;21.60;99.90;;;;;;5043790;28;20428;-82
2021/08/11 10:56:48;;;;;;;3.87;3.17;;;21.80;99.90;;;;;;5045113;28;20801;-82
2021/08/11 10:59:46;;;;;;;6.07;4.00;;;21.60;99.90;;;;;;5044441;28;20494;-83
2021/08/11 11:02:44;;;;;;;6.23;3.70;;;21.90;99.90;;;;;;5045753;28;20808;-82
2021/08/11 11:06:04;;;;;;;4.10;3.20;;;22.20;99.90;;;;;;5045019;28;20436;-85
2021/08/11 11:08:39;;;;;;;4.00;3.43;;;22.20;99.90;;;;;;5043399;28;20399;-82
2021/08/11 11:11:37;;;;;;;3.17;2.87;;;22.10;99.90;;;;;;5045227;28;20451;-85
2021/08/11 11:14:58;;;;;;;5.10;4.13;;;21.70;99.90;;;;;;5059662;28;20439;-82
2021/08/11 11:17:28;;;;;;;2.87;2.50;;;21.60;99.90;;;;;;5060431;28;20514;-83
2021/08/11 11:20:36;;;;;;;2.70;2.23;;;21.70;99.90;;;;;;5061873;28;20382;-83
2021/08/11 11:23:08;;;;;;;4.03;3.20;;;21.80;99.90;;;;;;5063289;28;20845;-84
2021/08/11 11:26:05;;;;;;;6.40;3.93;;;22.10;99.90;;;;;;5062144;28;20446;-85
2021/08/11 11:28:58;;;;;;;3.67;2.60;;;22.00;99.90;;;;;;5061957;28;20429;-85
2021/08/11 11:31:46;;;;;;;4.20;3.03;;;22.20;99.90;;;;;;5065766;28;20979;-84
2021/08/11 11:34:49;;;;;;;3.47;2.80;;;22.60;99.90;;;;;;5057893;28;20475;-84
2021/08/11 11:38:26;;;;;;;3.60;3.00;;;22.50;99.90;;;;;;5040529;28;20452;-84
2021/08/11 11:41:16;;;;;;;4.63;4.00;;;22.30;99.90;;;;;;5045605;28;20474;-84
2021/08/11 11:44:50;;;;;;;4.00;3.30;;;21.80;99.90;;;;;;5031433;28;20460;-85
2021/08/11 11:48:15;;;;;;;5.90;3.23;;;21.50;99.90;;;;;;5044558;28;20470;-84
2021/08/11 11:50:50;;;;;;;3.30;3.00;;;21.80;99.90;;;;;;4964383;29;20458;-84
2021/08/11 11:53:32;;;;;;;4.20;3.50;;;22.00;99.90;;;;;;5031618;28;20454;-84
2021/08/11 11:58:51;;;;;;;3.73;2.93;;;22.50;99.90;;;;;;5072800;22;20494;-72
2021/08/11 12:01:19;;;;;;;3.50;2.93;;;23.00;99.90;;;;;;5059465;28;20439;-78
2021/08/11 12:03:51;;;;;;;3.63;2.60;;;23.00;99.90;;;;;;5046325;28;20493;-74
2021/08/11 12:06:36;;;;;;;5.80;3.87;;;23.40;99.90;;;;;;5042566;28;20417;-73
2021/08/11 12:09:05;;;;;;;3.33;3.00;;;23.90;99.90;;;;;;5041361;28;20441;-72
2021/08/11 12:11:35;;;;;;;5.27;3.57;;;23.30;99.90;;;;;;5046549;28;20445;-77
2021/08/11 12:14:05;;;;;;;4.13;3.27;;;23.00;99.90;;;;;;5033106;28;20850;-79
2021/08/11 12:16:38;;;;;;;4.60;3.80;;;22.60;99.90;;;;;;5034470;28;20949;-71
2021/08/11 12:19:12;;;;;;;2.90;2.63;;;22.40;99.90;;;;;;5050938;28;20471;-72
2021/08/11 12:21:42;;;;;;;4.27;2.90;;;22.10;99.90;;;;;;5051144;28;20466;-75
2021/08/11 12:24:11;;;;;;;3.93;3.30;;;22.00;99.90;;;;;;5051591;28;20763;-73
2021/08/11 12:26:39;;;;;;;4.43;3.43;;;22.20;99.90;;;;;;5050276;28;20797;-72
2021/08/11 12:29:19;;;;;;;6.33;4.63;;;22.30;99.90;;;;;;5051302;28;20400;-71
2021/08/11 12:31:48;;;;;;;4.47;2.70;;;22.40;99.90;;;;;;5050840;28;20788;-71
2021/08/11 12:34:17;;;;;;;4.73;2.97;;;22.50;99.90;;;;;;5050702;28;20404;-74
2021/08/11 12:36:47;;;;;;;4.27;2.67;;;22.80;99.90;;;;;;5049861;28;20801;-70
2021/08/11 12:39:16;;;;;;;5.53;3.60;;;22.90;99.90;;;;;;5038212;28;20863;-72
2021/08/11 12:41:46;;;;;;;6.30;3.10;;;22.80;99.90;;;;;;5048951;28;20454;-72
2021/08/11 12:44:18;;;;;;;3.50;3.07;;;22.70;99.90;;;;;;5049496;28;20530;-77
2021/08/11 12:46:49;;;;;;;4.30;3.90;;;22.90;99.90;;;;;;5039084;28;20432;-76
2021/08/11 12:49:20;;;;;;;3.97;3.57;;;23.30;99.90;;;;;;5045019;28;20429;-72
2021/08/11 12:52:15;;;;;;;7.13;3.60;;;23.80;99.90;;;;;;5040492;28;21044;-78
2021/08/11 12:54:59;;;;;;;3.30;2.93;;;24.20;99.90;;;;;;5028895;28;20398;-74
2021/08/11 12:57:50;;;;;;;4.23;3.40;;;24.30;99.90;;;;;;5012352;28;21338;-74
2021/08/11 13:00:37;;;;;;;6.87;3.73;;;23.90;99.90;;;;;;5030099;28;20942;-73
2021/08/11 13:03:10;;;;;;;5.00;3.70;;;24.00;99.90;;;;;;5030025;28;20430;-73
2021/08/11 13:05:52;;;;;;;4.63;3.47;;;23.70;99.90;;;;;;5029912;28;20399;-74
2021/08/11 13:08:38;;;;;;;3.33;3.00;;;23.70;99.90;;;;;;5030500;28;20439;-74
2021/08/11 13:11:07;;;;;;;4.80;3.43;;;23.70;99.90;;;;;;5030351;28;20516;-72
2021/08/11 13:13:36;;;;;;;5.90;4.27;;;23.60;99.90;;;;;;5012923;28;20403;-73
2021/08/11 13:16:08;;;;;;;7.43;3.30;;;23.70;99.90;;;;;;5029635;28;20492;-72
2021/08/11 13:18:36;;;;;;;3.70;2.83;;;23.90;99.90;;;;;;5014285;28;20444;-71
2021/08/11 13:21:04;;;;;;;3.87;3.03;;;24.00;99.90;;;;;;5038274;28;20929;-71
2021/08/11 13:23:33;;;;;;;4.30;3.70;;;23.80;99.90;;;;;;5046468;28;20926;-72
2021/08/11 13:26:02;;;;;;;4.97;3.60;;;23.90;99.90;;;;;;5048376;28;20422;-73
2021/08/11 13:28:32;;;;;;;4.10;3.50;;;24.30;99.90;;;;;;5050341;28;20426;-73
2021/08/11 13:31:00;;;;;;;3.57;3.27;;;24.40;99.90;;;;;;5051101;28;20475;-73
2021/08/11 13:33:28;;;;;;;4.73;3.33;;;24.60;99.90;;;;;;5050104;28;20461;-73
2021/08/11 13:35:56;;;;;;;5.10;3.33;;;24.90;99.90;;;;;;5049222;28;20437;-74
2021/08/11 13:38:25;;;;;;;4.43;4.03;;;24.70;99.90;;;;;;5049668;28;20452;-72
2021/08/11 13:40:53;;;;;;;4.13;3.60;;;24.40;99.90;;;;;;5038831;28;20455;-73
2021/08/11 13:43:23;;;;;;;6.00;3.97;;;24.50;99.90;;;;;;5030336;28;20387;-72
2021/08/11 13:45:51;;;;;;;3.40;3.00;;;24.10;99.90;;;;;;5032837;28;20446;-72
2021/08/11 13:48:19;;;;;;;4.13;3.73;;;23.80;99.90;;;;;;5050740;28;20481;-73
2021/08/11 13:50:48;;;;;;;5.90;4.27;;;23.60;99.90;;;;;;5051774;28;20508;-73
2021/08/11 13:53:16;;;;;;;4.93;4.00;;;23.20;99.90;;;;;;5033668;28;20434;-74
2021/08/11 13:55:44;;;;;;;4.30;3.87;;;23.00;99.90;;;;;;5051027;28;20441;-73
2021/08/11 13:58:13;;;;;;;5.90;4.17;;;22.70;99.90;;;;;;5049660;28;20522;-74
2021/08/11 14:00:42;;;;;;;4.80;3.70;;;22.70;99.90;;;;;;5049796;28;20413;-72
2021/08/11 14:03:10;;;;;;;3.80;3.27;;;22.80;99.90;;;;;;5032886;28;20438;-73
2021/08/11 14:05:41;;;;;;;4.43;3.63;;;22.90;99.90;;;;;;5050164;28;20814;-73
2021/08/11 14:08:09;;;;;;;6.50;3.50;;;23.00;99.90;;;;;;5050098;28;20521;-73
2021/08/11 14:10:37;;;;;;;4.73;4.13;;;23.20;99.90;;;;;;5050584;28;20527;-74
2021/08/11 14:13:05;;;;;;;5.37;4.23;;;23.20;99.90;;;;;;5033952;28;20455;-73
2021/08/11 14:15:34;;;;;;;7.47;6.70;;;23.00;99.90;;;;;;5054465;28;20409;-73
2021/08/11 14:18:05;;;;;;;5.17;3.80;;;23.10;99.90;;;;;;5051835;28;20886;-72
2021/08/11 14:20:33;;;;;;;4.73;4.23;;;23.20;99.90;;;;;;5017923;28;20456;-74
2021/08/11 14:23:01;;;;;;;4.60;4.07;;;23.40;99.90;;;;;;5049641;28;20420;-73
2021/08/11 14:25:30;;;;;;;5.00;4.00;;;23.50;99.90;;;;;;5029448;28;20436;-73
2021/08/11 14:27:58;;;;;;;4.80;3.57;;;23.90;99.90;;;;;;5031020;28;20538;-73
2021/08/11 14:30:26;;;;;;;4.10;3.47;;;23.90;99.90;;;;;;5031718;28;20424;-71
2021/08/11 14:32:54;;;;;;;4.77;3.30;;;23.90;99.90;;;;;;5027854;28;20464;-72
2021/08/11 14:35:24;;;;;;;4.30;3.67;;;23.70;99.90;;;;;;5014858;28;20439;-71
2021/08/11 14:37:52;;;;;;;6.60;3.37;;;23.60;99.90;;;;;;5033834;28;20440;-73
2021/08/11 14:40:21;;;;;;;4.47;4.07;;;23.80;99.90;;;;;;5018369;28;20466;-77
2021/08/11 14:42:49;;;;;;;4.10;3.67;;;24.00;99.90;;;;;;5048021;28;20404;-75
2021/08/11 14:45:18;;;;;;;4.07;3.57;;;24.50;99.90;;;;;;5047472;28;20526;-72
2021/08/11 14:47:47;;;;;;;4.70;3.53;;;24.70;99.90;;;;;;5031091;28;20443;-73
2021/08/11 14:50:15;;;;;;;4.30;3.90;;;24.50;99.90;;;;;;5032081;28;20446;-77
2021/08/11 14:52:45;;;;;;;4.93;3.70;;;24.20;99.90;;;;;;5034701;28;20483;-73
2021/08/11 14:55:14;;;;;;;3.73;3.33;;;24.30;99.90;;;;;;5052444;28;20912;-77
2021/08/11 14:57:42;;;;;;;5.80;4.90;;;24.30;99.90;;;;;;5034614;28;20797;-74
2021/08/11 15:00:11;;;;;;;4.30;3.90;;;24.00;99.90;;;;;;5049123;28;20984;-74
2021/08/11 15:02:40;;;;;;;3.63;3.07;;;24.00;99.90;;;;;;5014170;28;20446;-79